Time;durP1;ratioP1;P1;durP2;ratioP2;P2;SDS_P1;SDS_P2;PMS_P1;PMS_P2;Temp;Humidity;BMP_temperature;BMP_pressure;BME280_temperature;BME280_humidity;BME280_pressure;Samples;Min_cycle;Max_cycle;Signal;HPM_P1;HPM_P2
2023/05/29 00:02:15;;;;;;;6.28;2.55;;;16.50;70.30;;;;;;6128827;23;20014;-76
2023/05/29 00:04:40;;;;;;;5.90;2.75;;;16.50;70.20;;;;;;6145799;23;20017;-78
2023/05/29 00:07:06;;;;;;;7.30;2.67;;;16.50;70.60;;;;;;6130006;23;20321;-77
2023/05/29 00:09:32;;;;;;;5.30;3.13;;;16.40;70.00;;;;;;6147954;23;20005;-77
2023/05/29 00:11:57;;;;;;;8.25;4.20;;;16.40;70.10;;;;;;6122805;23;20021;-75
2023/05/29 00:14:23;;;;;;;6.03;2.70;;;16.40;70.10;;;;;;6123258;23;20021;-77
2023/05/29 00:16:50;;;;;;;9.10;3.00;;;16.30;70.10;;;;;;6123685;23;20059;-78
2023/05/29 00:19:16;;;;;;;5.35;3.22;;;16.30;70.10;;;;;;6123978;23;20157;-78
2023/05/29 00:21:43;;;;;;;8.00;2.75;;;16.30;70.20;;;;;;6123670;23;20464;-78
2023/05/29 00:24:09;;;;;;;8.15;3.45;;;16.30;70.20;;;;;;6123755;23;20006;-77
2023/05/29 00:26:35;;;;;;;6.13;3.22;;;16.20;70.20;;;;;;6097562;23;20091;-77
2023/05/29 00:29:01;;;;;;;8.60;3.65;;;16.30;70.50;;;;;;6122598;23;20021;-77
2023/05/29 00:31:27;;;;;;;8.55;3.35;;;16.20;70.50;;;;;;6097430;23;20404;-74
2023/05/29 00:33:53;;;;;;;6.35;3.63;;;16.20;70.50;;;;;;6123175;23;20018;-74
2023/05/29 00:36:19;;;;;;;6.28;3.53;;;16.20;70.70;;;;;;6124158;23;20009;-75
2023/05/29 00:38:44;;;;;;;7.38;2.78;;;16.20;70.60;;;;;;6096894;23;20010;-76
2023/05/29 00:41:15;;;;;;;5.30;3.33;;;16.10;70.60;;;;;;6123503;23;20778;-76
2023/05/29 00:43:41;;;;;;;3.85;2.25;;;16.10;70.70;;;;;;6122995;23;20018;-79
2023/05/29 00:46:07;;;;;;;6.75;3.53;;;16.10;70.70;;;;;;6096353;23;20337;-80
2023/05/29 00:48:33;;;;;;;5.03;3.20;;;16.10;70.80;;;;;;6124294;23;20018;-79
2023/05/29 00:50:59;;;;;;;6.55;2.97;;;16.10;70.80;;;;;;6124350;23;20022;-79
2023/05/29 00:53:25;;;;;;;8.50;3.80;;;16.00;70.80;;;;;;6123570;23;20006;-80
2023/05/29 00:55:52;;;;;;;8.02;4.47;;;16.00;70.80;;;;;;6124153;23;20010;-79
2023/05/29 00:58:17;;;;;;;5.70;2.80;;;16.00;70.90;;;;;;6123974;23;20010;-79
2023/05/29 01:00:43;;;;;;;7.25;3.35;;;16.00;70.90;;;;;;6098256;23;20185;-78
2023/05/29 01:03:14;;;;;;;7.70;2.90;;;16.00;71.00;;;;;;6123673;23;20298;-79
2023/05/29 01:05:41;;;;;;;7.05;3.10;;;16.00;71.10;;;;;;6123983;23;20030;-78
2023/05/29 01:08:07;;;;;;;7.10;3.20;;;16.00;71.00;;;;;;6121440;23;20013;-79
2023/05/29 01:10:34;;;;;;;5.40;3.13;;;16.00;71.00;;;;;;6123817;23;20053;-77
2023/05/29 01:13:17;;;;;;;5.53;3.00;;;16.00;71.10;;;;;;6121804;23;20345;-78
2023/05/29 01:16:00;;;;;;;5.53;2.85;;;15.90;71.20;;;;;;6097380;23;20009;-79
2023/05/29 01:18:57;;;;;;;5.60;2.53;;;15.90;71.20;;;;;;6122922;23;20038;-79
2023/05/29 01:22:02;;;;;;;6.70;2.85;;;15.80;71.20;;;;;;6122685;23;20085;-76
2023/05/29 01:24:57;;;;;;;8.75;3.90;;;15.80;71.10;;;;;;6096968;23;20013;-80
2023/05/29 01:27:25;;;;;;;8.40;2.70;;;15.70;71.00;;;;;;6122714;23;20660;-78
2023/05/29 01:29:52;;;;;;;6.43;3.42;;;15.70;71.00;;;;;;6124038;23;20056;-78
2023/05/29 01:32:20;;;;;;;5.50;3.03;;;15.70;71.20;;;;;;6122160;23;20099;-77
2023/05/29 01:34:45;;;;;;;6.55;3.55;;;15.70;71.20;;;;;;6122566;23;20010;-79
2023/05/29 01:37:11;;;;;;;8.25;3.63;;;15.70;71.20;;;;;;6123179;23;20010;-79
2023/05/29 01:39:37;;;;;;;10.15;3.65;;;15.70;71.10;;;;;;6123054;23;20010;-79
2023/05/29 01:42:04;;;;;;;7.13;3.17;;;15.60;71.70;;;;;;6145471;23;20029;-77
2023/05/29 01:44:31;;;;;;;6.53;3.40;;;15.70;71.30;;;;;;6121075;23;20010;-78
2023/05/29 01:46:57;;;;;;;7.55;2.92;;;15.70;71.40;;;;;;6121410;23;20018;-79
2023/05/29 01:49:24;;;;;;;5.57;2.85;;;15.60;71.50;;;;;;6122795;23;20010;-78
2023/05/29 01:51:50;;;;;;;8.40;3.10;;;15.60;71.70;;;;;;6122346;23;20014;-79
2023/05/29 01:54:15;;;;;;;6.50;2.95;;;15.60;72.30;;;;;;6126214;23;20065;-78
2023/05/29 01:56:41;;;;;;;6.38;3.35;;;15.60;72.00;;;;;;6125239;23;20028;-80
2023/05/29 01:59:10;;;;;;;6.07;2.78;;;15.60;72.10;;;;;;6147688;23;20005;-80
2023/05/29 02:01:39;;;;;;;6.93;2.85;;;15.50;72.10;;;;;;6122829;23;20368;-79
2023/05/29 02:04:05;;;;;;;7.25;3.65;;;15.50;72.20;;;;;;6124938;23;20012;-78
2023/05/29 02:06:31;;;;;;;9.32;3.85;;;15.50;72.30;;;;;;6123532;23;20010;-78
2023/05/29 02:08:56;;;;;;;8.23;3.53;;;15.50;72.40;;;;;;6123064;23;20128;-65
2023/05/29 02:11:22;;;;;;;9.05;3.47;;;15.50;72.40;;;;;;6121490;23;20179;-68
2023/05/29 02:13:47;;;;;;;6.60;3.30;;;15.50;72.60;;;;;;6122230;23;20006;-65
2023/05/29 02:16:13;;;;;;;5.20;2.97;;;15.40;72.60;;;;;;6120614;23;20076;-64
2023/05/29 02:18:39;;;;;;;6.70;3.53;;;15.40;72.60;;;;;;6095897;23;20001;-65
2023/05/29 02:21:04;;;;;;;7.53;3.20;;;15.40;72.70;;;;;;6121485;23;20006;-65
2023/05/29 02:23:30;;;;;;;10.85;3.97;;;15.40;72.90;;;;;;6095835;23;20006;-64
2023/05/29 02:25:56;;;;;;;6.05;3.30;;;15.30;72.90;;;;;;6095431;23;20416;-64
2023/05/29 02:28:21;;;;;;;6.13;2.60;;;15.30;73.00;;;;;;6121499;23;20480;-64
2023/05/29 02:30:47;;;;;;;6.65;3.33;;;15.30;73.10;;;;;;6094880;23;20405;-67
2023/05/29 02:33:12;;;;;;;6.28;3.58;;;15.20;73.10;;;;;;6121507;23;20458;-66
2023/05/29 02:35:38;;;;;;;7.93;3.53;;;15.20;73.20;;;;;;6120620;23;20376;-66
2023/05/29 02:38:04;;;;;;;6.47;3.17;;;15.20;73.30;;;;;;6121533;23;20733;-65
2023/05/29 02:40:29;;;;;;;5.93;3.15;;;15.20;73.40;;;;;;6095657;23;20010;-64
2023/05/29 02:42:55;;;;;;;6.07;2.97;;;15.20;73.50;;;;;;6094476;23;20013;-65
2023/05/29 02:45:21;;;;;;;8.93;4.40;;;15.10;73.70;;;;;;6121966;23;20014;-65
2023/05/29 02:47:46;;;;;;;6.60;2.97;;;15.10;73.80;;;;;;6118347;23;20089;-65
2023/05/29 02:50:14;;;;;;;5.03;3.05;;;15.00;74.00;;;;;;6121599;23;20018;-65
2023/05/29 02:52:40;;;;;;;6.40;3.53;;;15.10;74.20;;;;;;6094620;23;20010;-65
2023/05/29 02:55:06;;;;;;;6.05;3.30;;;15.00;74.30;;;;;;6095487;23;20077;-65
2023/05/29 02:57:32;;;;;;;6.55;3.60;;;15.00;74.60;;;;;;6094974;23;20016;-65
2023/05/29 02:59:58;;;;;;;8.38;3.78;;;15.00;74.70;;;;;;6121899;23;20423;-65
2023/05/29 03:02:23;;;;;;;6.90;4.30;;;15.00;74.80;;;;;;6120734;23;20088;-66
2023/05/29 03:04:50;;;;;;;8.30;3.25;;;15.00;75.00;;;;;;6143673;23;20017;-64
2023/05/29 03:07:16;;;;;;;5.95;3.25;;;15.00;75.20;;;;;;6120385;23;20006;-65
2023/05/29 03:09:42;;;;;;;8.00;3.20;;;15.00;75.30;;;;;;6120798;23;20508;-64
2023/05/29 03:12:07;;;;;;;12.48;3.75;;;14.90;75.40;;;;;;6092601;23;20384;-64
2023/05/29 03:14:35;;;;;;;8.35;3.40;;;14.90;75.60;;;;;;6121834;23;20452;-64
2023/05/29 03:17:04;;;;;;;7.03;3.70;;;14.90;75.60;;;;;;6094102;23;20041;-64
2023/05/29 03:19:29;;;;;;;10.38;3.70;;;14.90;75.70;;;;;;6095618;23;20017;-65
2023/05/29 03:21:55;;;;;;;7.07;3.40;;;14.80;75.90;;;;;;6122510;23;20034;-66
2023/05/29 03:24:21;;;;;;;11.95;4.38;;;14.80;75.90;;;;;;6121347;23;20006;-66
2023/05/29 03:26:46;;;;;;;9.55;3.33;;;14.80;76.20;;;;;;6123592;23;20017;-66
2023/05/29 03:29:12;;;;;;;5.40;3.00;;;14.70;76.30;;;;;;6123646;23;20563;-65
2023/05/29 03:31:37;;;;;;;13.63;5.10;;;14.80;76.50;;;;;;6096442;23;20025;-65
2023/05/29 03:34:03;;;;;;;5.68;3.40;;;14.70;76.60;;;;;;6122107;23;20009;-65
2023/05/29 03:36:29;;;;;;;6.45;3.47;;;14.70;76.90;;;;;;6122900;23;20006;-65
2023/05/29 03:38:54;;;;;;;9.20;3.67;;;14.70;76.90;;;;;;6123115;23;20017;-66
2023/05/29 03:41:20;;;;;;;7.53;3.92;;;14.70;77.10;;;;;;6122894;23;20018;-66
2023/05/29 03:43:46;;;;;;;8.73;3.60;;;14.70;77.70;;;;;;6123125;23;20068;-65
2023/05/29 03:46:11;;;;;;;8.32;4.25;;;14.70;77.30;;;;;;6123710;23;20010;-65
2023/05/29 03:48:37;;;;;;;8.05;3.30;;;14.70;77.40;;;;;;6122967;23;20037;-62
2023/05/29 03:51:04;;;;;;;10.55;3.35;;;14.70;77.60;;;;;;6123822;23;20879;-71
2023/05/29 03:53:29;;;;;;;6.15;3.45;;;14.60;77.50;;;;;;6122662;23;20306;-70
2023/05/29 03:55:55;;;;;;;7.30;3.03;;;14.70;77.60;;;;;;6122570;23;20017;-68
2023/05/29 03:58:20;;;;;;;6.32;3.40;;;14.60;77.70;;;;;;6123595;23;20010;-69
2023/05/29 04:00:46;;;;;;;8.20;3.60;;;14.70;77.90;;;;;;6121949;23;20060;-68
2023/05/29 04:03:12;;;;;;;6.15;3.10;;;14.70;78.00;;;;;;6123194;23;20006;-66
2023/05/29 04:05:37;;;;;;;10.07;3.90;;;14.80;78.00;;;;;;6122730;23;20393;-66
2023/05/29 04:08:04;;;;;;;10.40;3.80;;;14.80;78.10;;;;;;6122958;23;20336;-72
2023/05/29 04:10:33;;;;;;;7.13;3.97;;;14.80;78.00;;;;;;6097305;23;20077;-69
2023/05/29 04:13:00;;;;;;;8.15;3.20;;;14.80;78.00;;;;;;6122804;23;20417;-69
2023/05/29 04:15:26;;;;;;;5.60;3.22;;;14.80;78.00;;;;;;6123344;23;20018;-68
2023/05/29 04:17:52;;;;;;;8.45;3.30;;;14.80;77.70;;;;;;6123047;23;20014;-68
2023/05/29 04:20:17;;;;;;;6.85;3.15;;;14.80;77.70;;;;;;6124047;23;20006;-69
2023/05/29 04:22:43;;;;;;;7.30;3.50;;;14.90;77.80;;;;;;6121824;23;20006;-70
2023/05/29 04:25:09;;;;;;;9.90;3.47;;;14.90;77.90;;;;;;6123227;23;20088;-72
2023/05/29 04:27:37;;;;;;;6.70;3.05;;;15.00;77.80;;;;;;6121948;23;20458;-69
2023/05/29 04:30:07;;;;;;;7.70;2.92;;;15.00;77.70;;;;;;6122751;23;20010;-69
2023/05/29 04:32:33;;;;;;;6.07;2.90;;;15.00;77.80;;;;;;6121289;23;20542;-69
2023/05/29 04:35:02;;;;;;;5.90;3.30;;;15.10;78.20;;;;;;6123201;23;20002;-69
2023/05/29 04:37:28;;;;;;;7.13;3.05;;;15.20;77.70;;;;;;6094898;23;20010;-69
2023/05/29 04:39:55;;;;;;;5.85;3.50;;;15.30;78.00;;;;;;6123633;23;20006;-70
2023/05/29 04:42:22;;;;;;;10.40;3.72;;;15.30;77.40;;;;;;6121756;23;20089;-70
2023/05/29 04:44:49;;;;;;;6.05;2.67;;;15.40;77.40;;;;;;6122926;23;20010;-70
2023/05/29 04:47:15;;;;;;;5.78;2.80;;;15.50;77.10;;;;;;6121756;23;20089;-65
2023/05/29 04:49:41;;;;;;;6.78;3.28;;;15.50;76.90;;;;;;6123230;23;20005;-64
2023/05/29 04:52:07;;;;;;;6.07;3.50;;;15.50;76.90;;;;;;6120648;23;20088;-65
2023/05/29 04:54:35;;;;;;;7.30;3.22;;;15.60;77.00;;;;;;6096900;23;20373;-64
2023/05/29 04:57:00;;;;;;;9.15;3.03;;;15.70;77.00;;;;;;6095655;23;20017;-66
2023/05/29 04:59:26;;;;;;;7.30;3.15;;;15.80;76.80;;;;;;6122663;23;20409;-64
2023/05/29 05:01:52;;;;;;;5.05;2.80;;;15.80;76.70;;;;;;6120604;23;20021;-65
2023/05/29 05:04:17;;;;;;;7.25;3.00;;;15.90;76.40;;;;;;6121934;23;20009;-64
2023/05/29 05:06:43;;;;;;;8.02;2.72;;;15.90;76.20;;;;;;6095987;23;20033;-64
2023/05/29 05:09:09;;;;;;;5.95;2.80;;;16.00;76.00;;;;;;6123059;23;20387;-65
2023/05/29 05:11:35;;;;;;;4.30;2.53;;;16.10;76.00;;;;;;6094396;23;20033;-64
2023/05/29 05:14:01;;;;;;;5.80;2.78;;;16.10;76.20;;;;;;6096589;23;20037;-65
2023/05/29 05:16:26;;;;;;;5.13;2.50;;;16.10;75.70;;;;;;6122408;23;20006;-64
2023/05/29 05:18:52;;;;;;;4.80;3.08;;;16.20;75.60;;;;;;6096742;23;20084;-64
2023/05/29 05:21:17;;;;;;;5.15;3.17;;;16.20;75.30;;;;;;6121524;23;20364;-64
2023/05/29 05:23:43;;;;;;;5.38;2.25;;;16.30;75.30;;;;;;6122599;23;20006;-65
2023/05/29 05:26:08;;;;;;;3.65;2.72;;;16.30;75.10;;;;;;6121255;23;20431;-64
2023/05/29 05:28:35;;;;;;;4.60;2.63;;;16.40;75.10;;;;;;6122112;23;20010;-64
2023/05/29 05:31:01;;;;;;;7.28;2.50;;;16.40;74.90;;;;;;6121998;23;20084;-65
2023/05/29 05:33:27;;;;;;;5.55;2.92;;;16.40;74.70;;;;;;6121799;23;20084;-64
2023/05/29 05:35:53;;;;;;;6.07;2.55;;;16.40;74.80;;;;;;6121658;23;20014;-64
2023/05/29 05:38:18;;;;;;;4.47;2.65;;;16.50;74.30;;;;;;6122500;23;20037;-64
2023/05/29 05:40:44;;;;;;;7.18;2.95;;;16.50;74.60;;;;;;6120788;23;20520;-67
2023/05/29 05:43:10;;;;;;;3.60;2.53;;;16.50;74.60;;;;;;6121256;23;20024;-66
2023/05/29 05:45:41;;;;;;;8.02;2.70;;;16.50;74.40;;;;;;6095589;23;20020;-65
2023/05/29 05:48:07;;;;;;;3.42;2.28;;;16.60;74.40;;;;;;6121406;23;20428;-65
2023/05/29 05:50:33;;;;;;;4.43;2.42;;;16.60;74.50;;;;;;6095145;23;20088;-65
2023/05/29 05:52:59;;;;;;;4.18;2.45;;;16.70;74.40;;;;;;6122043;23;20062;-66
2023/05/29 05:55:26;;;;;;;4.32;2.70;;;16.70;74.10;;;;;;6120679;23;20310;-65
2023/05/29 05:57:51;;;;;;;4.95;2.50;;;16.70;74.30;;;;;;6122048;23;20006;-65
2023/05/29 06:00:17;;;;;;;4.72;2.75;;;16.90;74.10;;;;;;6120928;23;20467;-65
2023/05/29 06:02:44;;;;;;;5.95;2.65;;;16.90;73.90;;;;;;6121255;23;20018;-64
2023/05/29 06:05:11;;;;;;;4.18;1.98;;;17.00;73.60;;;;;;6095036;23;20012;-64
2023/05/29 06:07:37;;;;;;;3.15;2.08;;;17.00;73.20;;;;;;6094049;23;20014;-64
2023/05/29 06:10:04;;;;;;;3.25;2.28;;;17.00;73.40;;;;;;6121292;23;20014;-64
2023/05/29 06:12:30;;;;;;;4.15;2.28;;;17.10;73.20;;;;;;6121742;23;20018;-70
2023/05/29 06:14:55;;;;;;;3.85;2.13;;;17.10;72.70;;;;;;6122208;23;20092;-70
2023/05/29 06:17:22;;;;;;;4.72;2.35;;;17.10;72.50;;;;;;6121122;23;20013;-71
2023/05/29 06:19:48;;;;;;;3.90;2.17;;;17.10;72.50;;;;;;6121824;23;20017;-71
2023/05/29 06:22:15;;;;;;;5.85;2.15;;;17.20;72.60;;;;;;6120247;23;20010;-71
2023/05/29 06:24:40;;;;;;;4.93;2.30;;;17.20;72.70;;;;;;6122475;23;20021;-64
2023/05/29 06:27:06;;;;;;;2.78;1.98;;;17.30;72.50;;;;;;6121653;23;20322;-67
2023/05/29 06:29:32;;;;;;;3.70;1.95;;;17.40;72.10;;;;;;6122389;23;20013;-66
2023/05/29 06:31:58;;;;;;;3.47;1.73;;;17.50;71.80;;;;;;6121660;23;20577;-68
2023/05/29 06:34:24;;;;;;;4.00;2.25;;;17.60;71.50;;;;;;6121963;23;20067;-67
2023/05/29 06:36:49;;;;;;;3.55;2.15;;;17.70;71.30;;;;;;6121906;23;20061;-68
2023/05/29 06:39:15;;;;;;;3.60;2.15;;;17.70;71.10;;;;;;6095833;23;20006;-69
2023/05/29 06:41:40;;;;;;;4.35;2.00;;;17.80;70.90;;;;;;6095586;23;20027;-65
2023/05/29 06:44:06;;;;;;;2.90;1.88;;;17.90;70.80;;;;;;6121583;23;20018;-68
2023/05/29 06:46:32;;;;;;;4.30;2.20;;;17.90;70.60;;;;;;6119815;23;20006;-68
2023/05/29 06:48:57;;;;;;;4.07;1.88;;;17.90;70.20;;;;;;6093347;23;20010;-68
2023/05/29 06:51:23;;;;;;;3.28;2.17;;;17.90;70.00;;;;;;6119718;23;20014;-69
2023/05/29 06:53:49;;;;;;;3.63;2.17;;;17.90;70.30;;;;;;6119474;23;20085;-75
2023/05/29 06:56:14;;;;;;;3.20;1.60;;;18.00;70.00;;;;;;6119194;23;20010;-76
2023/05/29 06:58:40;;;;;;;2.72;1.88;;;18.00;69.80;;;;;;6120433;23;20364;-74
2023/05/29 07:01:06;;;;;;;5.03;1.85;;;18.10;69.50;;;;;;6118456;23;20057;-74
2023/05/29 07:03:32;;;;;;;3.08;2.05;;;18.10;69.20;;;;;;6119111;23;20009;-74
2023/05/29 07:05:57;;;;;;;2.83;1.90;;;18.20;69.40;;;;;;6119063;23;20009;-73
2023/05/29 07:08:24;;;;;;;2.78;1.58;;;18.20;69.10;;;;;;6109685;23;20009;-74
2023/05/29 07:10:50;;;;;;;2.92;2.00;;;18.30;69.10;;;;;;6118564;23;20047;-74
2023/05/29 07:13:17;;;;;;;5.57;2.17;;;18.40;68.70;;;;;;6120212;23;20443;-74
2023/05/29 07:15:43;;;;;;;4.18;1.75;;;18.40;68.60;;;;;;6120044;23;20017;-74
2023/05/29 07:18:09;;;;;;;4.53;2.00;;;18.50;68.40;;;;;;6119632;23;20093;-74
2023/05/29 07:20:36;;;;;;;2.75;1.73;;;18.50;68.40;;;;;;6120120;23;20010;-74
2023/05/29 07:23:03;;;;;;;2.28;1.50;;;18.70;68.30;;;;;;6120087;23;20013;-73
2023/05/29 07:25:29;;;;;;;3.50;2.20;;;18.70;67.80;;;;;;6093098;23;20093;-73
2023/05/29 07:27:55;;;;;;;3.05;1.50;;;18.80;67.60;;;;;;6120169;23;20006;-74
2023/05/29 07:30:20;;;;;;;2.65;1.50;;;18.90;67.30;;;;;;6119820;23;20018;-73
2023/05/29 07:32:46;;;;;;;2.83;1.60;;;18.90;67.50;;;;;;6120005;23;20010;-73
2023/05/29 07:35:11;;;;;;;5.55;2.35;;;18.90;67.10;;;;;;6120350;23;20454;-73
2023/05/29 07:37:37;;;;;;;4.20;1.95;;;19.00;67.00;;;;;;6120348;23;20255;-73
2023/05/29 07:40:06;;;;;;;3.30;1.95;;;19.00;67.10;;;;;;6120061;23;20356;-75
2023/05/29 07:42:34;;;;;;;2.60;1.70;;;19.10;66.90;;;;;;6120188;23;20009;-73
2023/05/29 07:45:00;;;;;;;4.00;1.83;;;19.10;66.10;;;;;;6122582;23;20041;-73
2023/05/29 07:47:26;;;;;;;4.07;1.90;;;19.10;65.90;;;;;;6120828;23;20061;-73
2023/05/29 07:49:54;;;;;;;3.60;1.70;;;19.20;65.80;;;;;;6119780;23;20086;-72
2023/05/29 07:52:20;;;;;;;3.60;2.05;;;19.30;66.20;;;;;;6118721;23;20017;-73
2023/05/29 07:54:46;;;;;;;3.83;1.73;;;19.40;66.00;;;;;;6119872;23;20006;-72
2023/05/29 07:57:11;;;;;;;2.88;1.92;;;19.50;65.70;;;;;;6095365;23;20010;-67
2023/05/29 07:59:38;;;;;;;2.65;1.50;;;19.60;65.00;;;;;;6120393;23;20025;-67
2023/05/29 08:02:04;;;;;;;2.95;1.40;;;19.70;64.70;;;;;;6120065;23;20014;-67
2023/05/29 08:04:30;;;;;;;2.42;1.30;;;19.70;64.10;;;;;;6122089;23;20010;-67
2023/05/29 08:06:56;;;;;;;3.38;1.27;;;19.70;63.90;;;;;;6120542;23;20263;-67
2023/05/29 08:09:22;;;;;;;6.45;1.70;;;19.70;63.80;;;;;;6121542;23;20006;-67
2023/05/29 08:11:47;;;;;;;4.25;1.90;;;19.80;64.20;;;;;;6121670;23;20086;-67
2023/05/29 08:14:16;;;;;;;2.88;1.73;;;19.80;63.90;;;;;;6123151;23;20417;-68
2023/05/29 08:16:42;;;;;;;3.65;1.83;;;19.90;63.70;;;;;;6120229;23;20022;-68
2023/05/29 08:19:07;;;;;;;3.88;2.08;;;20.00;63.30;;;;;;6121181;23;20424;-67
2023/05/29 08:21:33;;;;;;;3.47;1.67;;;20.10;63.50;;;;;;6121058;23;20089;-67
2023/05/29 08:23:59;;;;;;;3.30;1.83;;;20.20;63.50;;;;;;6123131;23;20101;-68
2023/05/29 08:26:26;;;;;;;6.20;2.65;;;20.30;64.30;;;;;;6123024;23;20068;-69
2023/05/29 08:28:52;;;;;;;4.03;1.80;;;20.40;62.50;;;;;;6120894;23;20006;-68
2023/05/29 08:31:17;;;;;;;2.40;1.55;;;20.30;61.60;;;;;;6122083;23;20045;-68
2023/05/29 08:33:43;;;;;;;5.55;2.13;;;20.30;61.60;;;;;;6121537;23;20010;-68
2023/05/29 08:36:08;;;;;;;4.18;1.83;;;20.30;61.50;;;;;;6120556;23;20005;-70
2023/05/29 08:38:36;;;;;;;2.40;1.33;;;20.30;61.30;;;;;;6121807;23;20344;-69
2023/05/29 08:41:02;;;;;;;7.05;2.25;;;20.30;61.20;;;;;;6120912;23;20073;-69
2023/05/29 08:43:32;;;;;;;3.80;2.22;;;20.30;61.10;;;;;;6094558;23;20324;-69
2023/05/29 08:46:02;;;;;;;3.08;1.77;;;20.30;61.20;;;;;;6119083;23;20010;-68
2023/05/29 08:48:29;;;;;;;3.45;2.10;;;20.20;61.20;;;;;;6094225;23;20013;-67
2023/05/29 08:50:57;;;;;;;3.75;2.10;;;20.20;61.10;;;;;;6120554;23;20510;-68
2023/05/29 08:53:24;;;;;;;6.28;2.40;;;20.30;61.20;;;;;;6121898;23;20569;-68
2023/05/29 08:55:52;;;;;;;4.50;2.33;;;20.20;61.30;;;;;;6121119;23;20006;-66
2023/05/29 08:58:19;;;;;;;4.03;2.47;;;20.30;61.00;;;;;;6120991;23;20014;-69
2023/05/29 09:00:47;;;;;;;10.75;1.92;;;20.30;61.10;;;;;;6102162;23;20082;-66
2023/05/29 09:03:13;;;;;;;4.03;1.70;;;20.30;61.20;;;;;;6088570;23;20511;-67
2023/05/29 09:05:40;;;;;;;3.90;2.10;;;20.30;61.10;;;;;;6063220;23;20066;-68
2023/05/29 09:08:11;;;;;;;4.55;1.90;;;20.30;61.00;;;;;;6066324;23;20010;-69
2023/05/29 09:10:39;;;;;;;3.22;1.92;;;20.40;61.00;;;;;;6066058;23;20010;-68
2023/05/29 09:13:05;;;;;;;2.88;1.55;;;20.40;61.40;;;;;;6093110;23;20007;-68
2023/05/29 09:15:31;;;;;;;5.28;2.22;;;20.50;61.60;;;;;;6093605;23;20022;-69
2023/05/29 09:17:58;;;;;;;4.15;2.47;;;20.50;61.30;;;;;;6066850;23;20014;-69
2023/05/29 09:20:25;;;;;;;4.00;1.60;;;20.60;61.70;;;;;;6092726;23;20018;-69
2023/05/29 09:22:55;;;;;;;3.83;2.05;;;20.70;61.70;;;;;;6067967;23;20049;-78
2023/05/29 09:25:23;;;;;;;4.40;2.03;;;20.80;61.40;;;;;;6093501;23;20021;-77
2023/05/29 09:28:03;;;;;;;7.25;1.70;;;20.90;61.20;;;;;;6067259;23;20094;-77
2023/05/29 09:30:42;;;;;;;3.05;1.85;;;20.90;61.20;;;;;;6094341;23;20117;-74
2023/05/29 09:33:09;;;;;;;5.43;2.33;;;21.00;61.10;;;;;;6092840;23;20010;-78
2023/05/29 09:35:46;;;;;;;5.05;2.05;;;21.00;61.10;;;;;;6067475;23;20393;-73
2023/05/29 09:38:15;;;;;;;6.15;2.30;;;21.00;61.40;;;;;;6091068;23;20034;-74
2023/05/29 09:40:42;;;;;;;4.38;2.40;;;21.10;61.40;;;;;;6091879;23;20010;-75
2023/05/29 09:43:17;;;;;;;3.40;2.33;;;21.20;61.30;;;;;;6092386;23;20022;-76
2023/05/29 09:45:47;;;;;;;3.20;1.90;;;21.20;61.20;;;;;;6093146;23;20014;-76
2023/05/29 09:48:18;;;;;;;3.65;2.30;;;21.20;61.00;;;;;;6091249;23;20070;-74
2023/05/29 09:50:47;;;;;;;3.20;1.85;;;21.20;61.10;;;;;;6092804;23;20017;-73
2023/05/29 09:53:24;;;;;;;4.10;2.00;;;21.40;61.30;;;;;;6091544;23;20014;-73
2023/05/29 09:55:55;;;;;;;4.47;2.35;;;21.50;60.70;;;;;;6091871;23;20014;-74
2023/05/29 09:58:22;;;;;;;5.05;2.15;;;21.60;60.70;;;;;;6092034;23;20051;-74
2023/05/29 10:00:49;;;;;;;5.30;2.30;;;21.70;60.50;;;;;;6091885;23;20038;-73
2023/05/29 10:03:16;;;;;;;4.35;1.95;;;21.80;60.00;;;;;;6066019;23;20086;-74
2023/05/29 10:05:43;;;;;;;4.82;2.33;;;21.80;59.40;;;;;;6090329;23;20122;-74
2023/05/29 10:08:13;;;;;;;4.07;2.15;;;21.80;59.30;;;;;;6088550;23;20045;-74
2023/05/29 10:10:46;;;;;;;4.80;2.45;;;21.80;59.60;;;;;;6091416;23;20433;-73
2023/05/29 10:13:12;;;;;;;5.90;1.90;;;21.80;59.20;;;;;;6066083;23;20042;-75
2023/05/29 10:15:45;;;;;;;4.82;2.08;;;21.90;59.50;;;;;;6065718;23;20326;-73
2023/05/29 10:18:20;;;;;;;5.50;2.10;;;22.00;58.50;;;;;;6065374;23;20002;-74
2023/05/29 10:20:52;;;;;;;4.15;1.88;;;22.10;58.70;;;;;;6089528;23;20006;-73
2023/05/29 10:23:25;;;;;;;4.43;2.05;;;22.10;58.30;;;;;;6092503;23;20040;-73
2023/05/29 10:26:02;;;;;;;9.65;2.50;;;22.20;58.90;;;;;;6088713;23;20010;-74
2023/05/29 10:28:27;;;;;;;3.35;1.75;;;22.20;59.30;;;;;;6092863;23;20118;-74
2023/05/29 10:31:01;;;;;;;3.63;1.90;;;22.30;58.60;;;;;;6089798;23;20505;-74
2023/05/29 10:33:57;;;;;;;3.28;1.80;;;22.30;58.60;;;;;;6092346;23;20003;-74
2023/05/29 10:36:28;;;;;;;5.45;2.38;;;22.40;59.10;;;;;;6089995;23;20029;-76
2023/05/29 10:38:53;;;;;;;7.90;1.80;;;22.40;58.50;;;;;;6094732;23;20015;-70
2023/05/29 10:41:28;;;;;;;4.63;2.80;;;22.40;59.00;;;;;;6092198;23;20496;-77
2023/05/29 10:43:55;;;;;;;7.47;2.22;;;22.40;58.50;;;;;;6095166;23;20018;-78
2023/05/29 10:46:21;;;;;;;3.65;2.13;;;22.50;58.10;;;;;;6093552;23;20357;-78
2023/05/29 10:48:49;;;;;;;2.97;2.03;;;22.60;58.40;;;;;;6095390;23;20017;-78
2023/05/29 10:51:42;;;;;;;2.70;1.70;;;22.70;57.20;;;;;;6094823;23;20370;-77
2023/05/29 10:54:07;;;;;;;4.63;2.25;;;22.80;57.20;;;;;;6063191;23;20022;-78
2023/05/29 10:56:33;;;;;;;11.15;2.10;;;22.80;56.40;;;;;;6094911;23;20012;-78
2023/05/29 10:59:03;;;;;;;2.83;1.80;;;22.80;56.40;;;;;;6099903;23;20344;-78
2023/05/29 11:01:30;;;;;;;3.05;1.95;;;22.80;55.60;;;;;;6121054;23;20022;-78
2023/05/29 11:04:17;;;;;;;3.17;1.92;;;22.70;55.30;;;;;;6123861;23;20502;-77
2023/05/29 11:06:43;;;;;;;4.28;1.90;;;22.70;55.70;;;;;;6146213;23;20021;-74
2023/05/29 11:09:31;;;;;;;3.58;1.95;;;22.70;55.30;;;;;;6122672;23;20020;-77
2023/05/29 11:12:25;;;;;;;2.60;1.88;;;22.70;55.60;;;;;;6123069;23;20091;-78
2023/05/29 11:15:06;;;;;;;5.10;2.47;;;22.80;56.10;;;;;;6123018;23;20021;-77
2023/05/29 11:17:38;;;;;;;5.00;2.08;;;22.80;56.00;;;;;;6123657;23;20014;-78
2023/05/29 11:20:06;;;;;;;4.53;2.00;;;22.80;55.60;;;;;;6124032;23;20014;-79
2023/05/29 11:22:59;;;;;;;3.10;2.00;;;22.90;55.30;;;;;;6121102;23;20029;-76
2023/05/29 11:25:26;;;;;;;2.10;1.55;;;23.00;55.40;;;;;;6121840;23;20064;-77
2023/05/29 11:27:52;;;;;;;5.68;2.58;;;23.10;55.30;;;;;;6124574;23;20010;-78
2023/05/29 11:30:18;;;;;;;3.72;1.67;;;23.10;55.20;;;;;;6125029;23;20491;-76
2023/05/29 11:32:46;;;;;;;8.65;2.13;;;23.20;54.70;;;;;;6128119;23;20022;-78
2023/05/29 11:35:13;;;;;;;3.78;1.92;;;23.30;54.50;;;;;;6126552;23;20025;-79
2023/05/29 11:37:42;;;;;;;5.60;2.35;;;23.20;53.60;;;;;;6125009;23;20425;-77
2023/05/29 11:40:09;;;;;;;4.10;2.08;;;23.20;54.30;;;;;;6126744;23;20013;-79
2023/05/29 11:42:35;;;;;;;2.70;1.60;;;23.20;54.40;;;;;;6125267;23;20085;-76
2023/05/29 11:45:21;;;;;;;6.85;2.13;;;23.10;54.40;;;;;;6123013;23;20006;-78
2023/05/29 11:47:57;;;;;;;3.10;2.05;;;23.00;54.10;;;;;;6121135;23;20084;-75
2023/05/29 11:50:25;;;;;;;4.38;2.40;;;22.90;54.10;;;;;;6122047;23;20024;-75
2023/05/29 11:52:51;;;;;;;4.75;2.65;;;22.80;54.40;;;;;;6122734;23;20021;-76
2023/05/29 11:55:21;;;;;;;7.78;2.97;;;22.90;55.00;;;;;;6144996;23;20117;-77
2023/05/29 11:57:51;;;;;;;9.52;2.60;;;23.00;54.70;;;;;;6144932;23;20109;-77
2023/05/29 12:00:18;;;;;;;3.20;1.88;;;22.90;54.50;;;;;;6123057;23;20101;-76
2023/05/29 12:02:46;;;;;;;3.85;2.20;;;22.90;54.60;;;;;;6118820;23;20016;-75
2023/05/29 12:05:18;;;;;;;6.15;1.65;;;22.80;54.60;;;;;;6121641;23;20017;-76
2023/05/29 12:08:01;;;;;;;5.53;2.50;;;22.90;54.70;;;;;;6121481;23;20013;-75
2023/05/29 12:10:27;;;;;;;3.90;2.20;;;22.90;54.10;;;;;;6143531;23;20014;-76
2023/05/29 12:12:57;;;;;;;4.30;2.10;;;23.00;53.80;;;;;;6122050;23;20057;-75
2023/05/29 12:15:23;;;;;;;2.70;1.75;;;23.00;53.50;;;;;;6122445;23;20065;-77
2023/05/29 12:17:50;;;;;;;5.88;2.20;;;23.00;53.50;;;;;;6121618;23;20017;-77
2023/05/29 12:20:17;;;;;;;3.42;1.77;;;23.10;53.90;;;;;;6146967;23;20325;-78
2023/05/29 12:22:44;;;;;;;2.97;1.90;;;23.20;53.60;;;;;;6122383;23;20017;-79
2023/05/29 12:25:19;;;;;;;3.30;1.90;;;23.20;53.20;;;;;;6123466;23;20049;-77
2023/05/29 12:27:47;;;;;;;3.55;1.83;;;23.30;52.50;;;;;;6124428;23;20022;-76
2023/05/29 12:30:20;;;;;;;3.38;1.65;;;23.40;52.60;;;;;;6123876;23;20014;-77
2023/05/29 12:32:48;;;;;;;5.60;2.00;;;23.50;53.40;;;;;;6123225;23;20025;-76
2023/05/29 12:35:22;;;;;;;3.70;2.10;;;23.60;52.70;;;;;;6122861;23;20022;-77
2023/05/29 12:37:49;;;;;;;4.20;1.80;;;23.70;52.40;;;;;;6145108;23;20032;-77
2023/05/29 12:40:22;;;;;;;3.80;2.08;;;23.60;52.40;;;;;;6122229;23;20056;-77
2023/05/29 12:42:48;;;;;;;2.90;1.98;;;23.60;52.70;;;;;;6122575;23;20001;-76
2023/05/29 12:45:17;;;;;;;4.95;1.98;;;23.50;52.80;;;;;;6122563;23;20014;-76
2023/05/29 12:47:50;;;;;;;4.47;2.25;;;23.40;52.80;;;;;;6135835;23;20006;-77
2023/05/29 12:50:23;;;;;;;4.68;2.45;;;23.40;53.00;;;;;;6131471;23;20014;-75